createdAt,value
2018-01-22T00:01:55.595Z,0.32
2018-01-22T00:04:29.444Z,2.35
2018-01-22T00:07:03.233Z,0.90
2018-01-22T00:09:37.005Z,0.50
2018-01-22T00:12:10.776Z,0.95
2018-01-22T00:14:44.519Z,0.75
2018-01-22T00:17:18.283Z,0.40
2018-01-22T00:19:52.054Z,0.30
2018-01-22T00:22:25.795Z,0.40
2018-01-22T00:24:59.565Z,1.50
2018-01-22T00:27:33.338Z,2.65
2018-01-22T00:30:06.987Z,0.40
2018-01-22T00:32:40.714Z,0.77
2018-01-22T00:35:14.517Z,0.73
2018-01-22T00:37:48.207Z,0.40
2018-01-22T00:40:21.926Z,0.40
2018-01-22T00:42:55.635Z,1.67
2018-01-22T00:45:29.378Z,0.62
2018-01-22T00:48:03.072Z,0.40
2018-01-22T00:50:37.457Z,0.40
2018-01-22T00:53:11.267Z,0.30
2018-01-22T00:55:45.304Z,2.92
2018-01-22T00:58:20.486Z,1.35
2018-01-22T01:00:54.213Z,1.48
2018-01-22T01:03:29.350Z,1.27
2018-01-22T01:06:03.127Z,0.30
2018-01-22T01:08:37.753Z,0.40
2018-01-22T01:11:12.383Z,0.40
2018-01-22T01:13:47.766Z,1.90
2018-01-22T01:16:22.285Z,0.40
2018-01-22T01:18:55.881Z,0.70
2018-01-22T01:21:29.697Z,1.15
2018-01-22T01:24:03.402Z,2.35
2018-01-22T01:26:37.785Z,0.70
2018-01-22T01:29:12.180Z,0.30
2018-01-22T01:31:46.557Z,0.40
2018-01-22T01:34:20.920Z,2.90
2018-01-22T01:36:55.457Z,1.17
2018-01-22T01:39:30.390Z,2.65
2018-01-22T01:42:04.037Z,0.40
2018-01-22T01:44:38.926Z,1.60
2018-01-22T01:47:13.451Z,4.90
2018-01-22T01:49:48.797Z,0.40
2018-01-22T01:52:22.686Z,0.88
2018-01-22T01:54:57.965Z,0.52
2018-01-22T01:57:33.847Z,0.50
2018-01-22T02:00:08.399Z,0.80
2018-01-22T02:02:42.507Z,1.45
2018-01-22T02:05:17.039Z,0.75
2018-01-22T02:07:50.828Z,1.70
2018-01-22T02:10:24.564Z,0.30
2018-01-22T02:12:58.311Z,3.40
2018-01-22T02:15:33.594Z,0.40
2018-01-22T02:18:07.525Z,0.60
2018-01-22T02:20:41.327Z,1.02
2018-01-22T02:23:15.168Z,0.35
2018-01-22T02:25:48.961Z,0.98
2018-01-22T02:28:23.144Z,2.72
2018-01-22T02:30:57.541Z,0.40
2018-01-22T02:33:32.736Z,0.40
2018-01-22T02:36:06.632Z,0.40
2018-01-22T02:38:41.212Z,0.40
2018-01-22T02:41:15.806Z,0.43
2018-01-22T02:43:50.192Z,0.82
2018-01-22T02:46:24.716Z,1.42
2018-01-22T02:49:00.013Z,0.77
2018-01-22T02:51:34.156Z,0.52
2018-01-22T02:54:07.898Z,1.00
2018-01-22T02:56:41.668Z,0.85
2018-01-22T02:59:16.210Z,1.77
2018-01-22T03:01:50.952Z,0.90
2018-01-22T03:04:24.730Z,0.40
2018-01-22T03:06:58.595Z,0.75
2018-01-22T03:09:32.306Z,0.45
2018-01-22T03:12:05.936Z,3.10
2018-01-22T03:14:39.742Z,1.95
2018-01-22T03:17:13.484Z,0.40
2018-01-22T03:19:47.120Z,1.67
2018-01-22T03:22:20.744Z,0.70
2018-01-22T03:24:55.400Z,1.20
2018-01-22T03:27:29.928Z,0.40
2018-01-22T03:30:04.092Z,0.40
2018-01-22T03:32:37.962Z,0.40
2018-01-22T03:35:12.450Z,0.40
2018-01-22T03:37:46.254Z,0.50
2018-01-22T03:40:20.060Z,0.82
2018-01-22T03:42:53.764Z,0.98
2018-01-22T03:45:27.425Z,0.40
2018-01-22T03:48:01.070Z,0.70
2018-01-22T03:50:34.786Z,0.50
2018-01-22T03:53:08.566Z,2.90
2018-01-22T03:55:42.353Z,1.62
2018-01-22T03:58:16.220Z,1.95
2018-01-22T04:00:50.032Z,0.50
2018-01-22T04:03:24.612Z,0.40
2018-01-22T04:05:58.965Z,1.42
2018-01-22T04:08:33.754Z,1.40
2018-01-22T04:11:07.335Z,0.95
2018-01-22T04:13:42.067Z,1.27
2018-01-22T04:16:17.367Z,0.40
2018-01-22T04:18:52.176Z,0.60
2018-01-22T04:21:25.916Z,0.35
2018-01-22T04:24:00.015Z,0.40
2018-01-22T04:26:35.168Z,1.10
2018-01-22T04:29:08.824Z,1.23
2018-01-22T04:31:43.872Z,0.50
2018-01-22T04:34:17.658Z,1.15
2018-01-22T04:36:51.503Z,0.43
2018-01-22T04:39:25.552Z,0.40
2018-01-22T04:41:59.376Z,0.40
2018-01-22T04:44:33.345Z,4.10
2018-01-22T04:47:07.052Z,0.82
2018-01-22T04:49:40.822Z,0.73
2018-01-22T04:52:14.432Z,0.50
2018-01-22T04:54:49.654Z,0.85
2018-01-22T04:57:23.554Z,0.30
2018-01-22T04:59:57.377Z,0.57
2018-01-22T05:02:31.184Z,0.50
2018-01-22T05:05:04.886Z,0.75
2018-01-22T05:07:38.679Z,0.90
2018-01-22T05:10:13.033Z,0.98
2018-01-22T05:12:48.296Z,1.92
2018-01-22T05:15:21.927Z,0.40
2018-01-22T05:17:55.635Z,0.40
2018-01-22T05:20:30.255Z,1.37
2018-01-22T05:23:03.995Z,0.50
2018-01-22T05:25:37.757Z,0.95
2018-01-22T05:28:11.560Z,2.70
2018-01-22T05:30:45.421Z,0.73
2018-01-22T05:33:20.891Z,1.20
2018-01-22T05:35:54.668Z,0.88
2018-01-22T05:38:29.457Z,0.40
2018-01-22T05:41:03.978Z,0.40
2018-01-22T05:43:37.762Z,0.40
2018-01-22T05:46:12.989Z,0.50
2018-01-22T05:48:48.873Z,1.30
2018-01-22T05:51:22.663Z,0.40
2018-01-22T05:53:56.531Z,0.40
2018-01-22T05:56:30.353Z,0.40
2018-01-22T05:59:06.331Z,0.40
2018-01-22T06:01:39.990Z,1.90
2018-01-22T06:04:14.598Z,1.00
2018-01-22T06:06:49.686Z,1.30
2018-01-22T06:09:23.345Z,1.25
2018-01-22T06:11:57.918Z,0.32
2018-01-22T06:14:32.616Z,2.25
2018-01-22T06:17:06.220Z,4.07
2018-01-22T06:19:40.165Z,0.40
2018-01-22T06:22:13.920Z,0.40
2018-01-22T06:24:47.590Z,0.40
2018-01-22T06:27:21.476Z,3.37
2018-01-22T06:29:55.244Z,2.00
2018-01-22T06:32:29.024Z,0.77
2018-01-22T06:35:02.832Z,0.32
2018-01-22T06:37:36.663Z,0.40
2018-01-22T06:40:10.576Z,1.20
2018-01-22T06:42:45.395Z,1.08
2018-01-22T06:45:20.103Z,0.57
2018-01-22T06:47:53.863Z,1.33
2018-01-22T06:50:28.346Z,0.70
2018-01-22T06:53:02.956Z,0.57
2018-01-22T06:55:36.684Z,2.40
2018-01-22T06:58:10.520Z,0.60
2018-01-22T07:00:44.299Z,0.40
2018-01-22T07:03:18.086Z,0.40
2018-01-22T07:05:52.744Z,1.23
2018-01-22T07:08:26.404Z,0.95
2018-01-22T07:11:00.252Z,1.05
2018-01-22T07:13:34.032Z,0.40
2018-01-22T07:16:08.753Z,3.65
2018-01-22T07:18:43.192Z,0.40
2018-01-22T07:21:16.869Z,0.40
2018-01-22T07:23:50.622Z,1.77
2018-01-22T07:26:24.432Z,2.78
2018-01-22T07:28:58.490Z,1.00
2018-01-22T07:31:32.063Z,1.20
2018-01-22T07:34:05.835Z,1.23
2018-01-22T07:36:39.772Z,0.40
2018-01-22T07:39:13.413Z,1.87
2018-01-22T07:41:47.811Z,1.23
2018-01-22T07:44:21.610Z,0.40
2018-01-22T07:46:55.381Z,3.35
2018-01-22T07:49:29.142Z,0.70
2018-01-22T07:52:02.854Z,0.30
2018-01-22T07:54:36.563Z,0.95
2018-01-22T07:57:11.147Z,0.43
2018-01-22T07:59:45.092Z,1.85
2018-01-22T08:02:18.807Z,0.40
2018-01-22T08:04:52.551Z,3.33
2018-01-22T08:07:26.316Z,0.50
2018-01-22T08:10:00.539Z,0.88
2018-01-22T08:12:35.264Z,0.70
2018-01-22T08:15:09.102Z,1.70
2018-01-22T08:17:42.921Z,0.65
2018-01-22T08:20:18.559Z,0.40
2018-01-22T08:22:52.306Z,1.10
2018-01-22T08:25:26.616Z,0.50
2018-01-22T08:28:00.249Z,2.40
2018-01-22T08:30:34.808Z,1.40
2018-01-22T08:33:08.681Z,1.85
2018-01-22T08:35:43.172Z,1.08
2018-01-22T08:38:17.788Z,1.35
2018-01-22T08:40:51.700Z,0.95
2018-01-22T08:43:25.387Z,1.55
2018-01-22T08:45:59.134Z,3.00
2018-01-22T08:48:32.909Z,0.40
2018-01-22T08:51:06.593Z,0.52
2018-01-22T08:53:40.331Z,0.30
2018-01-22T08:56:14.012Z,1.40
2018-01-22T08:58:47.736Z,0.40
2018-01-22T09:01:21.533Z,0.88
2018-01-22T09:03:55.235Z,3.10
2018-01-22T09:06:28.914Z,0.40
2018-01-22T09:09:02.649Z,0.73
2018-01-22T09:11:36.622Z,0.40
2018-01-22T09:14:10.387Z,1.35
2018-01-22T09:16:44.415Z,1.10
2018-01-22T09:19:18.147Z,0.77
2018-01-22T09:21:51.880Z,0.40
2018-01-22T09:24:26.045Z,1.52
2018-01-22T09:26:59.701Z,0.50
2018-01-22T09:29:33.373Z,0.93
2018-01-22T09:32:07.173Z,0.40
2018-01-22T09:34:42.025Z,0.77
2018-01-22T09:37:15.731Z,0.40
2018-01-22T09:39:51.203Z,3.33
2018-01-22T09:42:24.791Z,0.40
2018-01-22T09:44:58.569Z,0.52
2018-01-22T09:47:33.460Z,0.40
2018-01-22T09:50:07.234Z,0.40
2018-01-22T09:52:41.856Z,0.62
2018-01-22T09:55:16.752Z,0.80
2018-01-22T09:57:50.548Z,2.25
2018-01-22T10:00:25.110Z,2.50
2018-01-22T10:02:58.949Z,0.85
2018-01-22T10:05:32.623Z,0.75
2018-01-22T10:08:06.432Z,2.05
2018-01-22T10:10:40.972Z,0.30
2018-01-22T10:13:15.577Z,0.40
2018-01-22T10:15:49.432Z,0.40
2018-01-22T10:18:23.741Z,0.40
2018-01-22T10:20:57.484Z,1.17
2018-01-22T10:23:31.935Z,1.20
2018-01-22T10:26:05.648Z,0.50
2018-01-22T10:28:39.424Z,0.40
2018-01-22T10:31:14.260Z,0.40
2018-01-22T10:33:49.266Z,0.40
2018-01-22T10:36:23.002Z,3.55
2018-01-22T10:38:57.728Z,2.80
2018-01-22T10:41:32.428Z,1.05
2018-01-22T10:44:06.293Z,0.40
2018-01-22T10:46:40.117Z,0.50
2018-01-22T10:49:13.934Z,2.35
2018-01-22T10:51:48.049Z,0.40
2018-01-22T10:54:21.871Z,0.65
2018-01-22T10:56:56.399Z,0.60
2018-01-22T10:59:30.231Z,0.40
2018-01-22T11:02:04.308Z,0.43
2018-01-22T11:04:38.059Z,0.40
2018-01-22T11:07:11.684Z,0.40
2018-01-22T11:09:46.162Z,0.40
2018-01-22T11:12:20.709Z,0.40
2018-01-22T11:14:54.701Z,0.40
2018-01-22T11:17:28.887Z,0.40
2018-01-22T11:20:03.858Z,0.40
2018-01-22T11:22:37.679Z,0.50
2018-01-22T11:25:12.040Z,0.40
2018-01-22T11:27:45.894Z,2.15
2018-01-22T11:30:20.767Z,0.50
2018-01-22T11:32:54.558Z,0.50
2018-01-22T11:35:28.280Z,0.40
2018-01-22T11:38:03.206Z,0.30
2018-01-22T11:40:37.745Z,0.30
2018-01-22T11:43:12.375Z,0.68
2018-01-22T11:45:46.501Z,0.40
2018-01-22T11:48:21.022Z,0.35
2018-01-22T11:50:54.758Z,1.15
2018-01-22T11:53:30.426Z,0.32
2018-01-22T11:56:04.167Z,2.37
2018-01-22T11:58:38.865Z,0.82
2018-01-22T12:01:14.102Z,0.40
2018-01-22T12:03:47.935Z,0.40
2018-01-22T12:06:23.037Z,0.40
2018-01-22T12:08:56.733Z,0.40
2018-01-22T12:11:30.495Z,1.77
2018-01-22T12:14:04.271Z,0.30
2018-01-22T12:16:37.956Z,0.40
2018-01-22T12:19:12.033Z,0.40
2018-01-22T12:21:45.747Z,0.40
2018-01-22T12:24:19.602Z,0.40
2018-01-22T12:26:54.153Z,0.40
2018-01-22T12:29:29.036Z,0.47
2018-01-22T12:32:03.517Z,0.75
2018-01-22T12:34:37.374Z,0.40
2018-01-22T12:37:11.417Z,0.40
2018-01-22T12:39:46.969Z,0.40
2018-01-22T12:42:20.569Z,0.40
2018-01-22T12:44:55.066Z,0.30
2018-01-22T12:47:29.719Z,1.83
2018-01-22T12:50:03.329Z,0.40
2018-01-22T12:52:36.911Z,0.40
2018-01-22T12:55:12.844Z,0.37
2018-01-22T12:57:46.754Z,0.30
2018-01-22T13:00:22.525Z,0.30
2018-01-22T13:02:57.745Z,0.30
2018-01-22T13:05:31.948Z,0.40
2018-01-22T13:08:06.252Z,0.40
2018-01-22T13:10:40.798Z,0.55
2018-01-22T13:13:15.740Z,0.50
2018-01-22T13:15:49.519Z,0.35
2018-01-22T13:18:23.305Z,0.50
2018-01-22T13:20:56.953Z,0.40
2018-01-22T13:23:31.627Z,0.40
2018-01-22T13:26:05.408Z,0.37
2018-01-22T13:28:39.210Z,1.70
2018-01-22T13:31:14.217Z,0.70
2018-01-22T13:33:48.688Z,1.08
2018-01-22T13:36:24.097Z,0.40
2018-01-22T13:38:57.855Z,0.40
2018-01-22T13:41:32.398Z,0.40
2018-01-22T13:44:06.568Z,0.30
2018-01-22T13:46:42.424Z,0.55
2018-01-22T13:49:16.288Z,0.30
2018-01-22T13:51:49.990Z,1.02
2018-01-22T13:54:23.744Z,0.70
2018-01-22T13:56:57.590Z,0.50
2018-01-22T13:59:31.344Z,0.80
2018-01-22T14:02:05.132Z,0.47
2018-01-22T14:04:38.823Z,0.40
2018-01-22T14:07:12.554Z,0.40
2018-01-22T14:09:47.095Z,0.62
2018-01-22T14:12:21.277Z,0.40
2018-01-22T14:14:55.141Z,0.30
2018-01-22T14:17:28.967Z,0.40
2018-01-22T14:20:02.759Z,0.40
2018-01-22T14:22:36.755Z,0.40
2018-01-22T14:25:10.615Z,0.77
2018-01-22T14:27:44.244Z,0.68
2018-01-22T14:30:18.091Z,0.93
2018-01-22T14:32:51.917Z,0.30
2018-01-22T14:35:27.224Z,0.40
2018-01-22T14:38:02.508Z,0.50
2018-01-22T14:40:37.622Z,0.50
2018-01-22T14:43:11.187Z,0.70
2018-01-22T14:45:45.982Z,0.50
2018-01-22T14:48:20.602Z,0.30
2018-01-22T14:50:54.346Z,0.50
2018-01-22T14:53:28.095Z,1.58
2018-01-22T14:56:02.077Z,0.30
2018-01-22T14:58:35.896Z,0.60
2018-01-22T15:01:10.383Z,0.40
2018-01-22T15:03:44.903Z,0.40
2018-01-22T15:06:21.533Z,0.30
2018-01-22T15:08:55.340Z,2.87
2018-01-22T15:11:29.577Z,0.37
2018-01-22T15:14:03.299Z,0.50
2018-01-22T15:16:37.195Z,0.55
2018-01-22T15:19:10.911Z,0.50
2018-01-22T15:21:44.616Z,0.40
2018-01-22T15:24:18.953Z,0.50
2018-01-22T15:26:52.743Z,0.70
2018-01-22T15:29:26.503Z,0.82
2018-01-22T15:32:01.053Z,1.77
2018-01-22T15:34:34.759Z,1.10
2018-01-22T15:37:08.497Z,0.40
2018-01-22T15:39:42.149Z,1.80
2018-01-22T15:42:16.051Z,0.95
2018-01-22T15:44:50.629Z,0.52
2018-01-22T15:47:24.369Z,1.67
2018-01-22T15:49:58.973Z,0.40
2018-01-22T15:52:32.652Z,0.40
2018-01-22T15:55:06.399Z,0.70
2018-01-22T15:57:40.260Z,0.40
2018-01-22T16:00:14.201Z,1.02
2018-01-22T16:02:48.881Z,0.40
2018-01-22T16:05:22.555Z,1.23
2018-01-22T16:07:56.276Z,0.40
2018-01-22T16:10:30.095Z,0.40
2018-01-22T16:13:03.784Z,0.40
2018-01-22T16:15:37.621Z,0.50
2018-01-22T16:18:12.237Z,1.95
2018-01-22T16:20:45.928Z,1.52
2018-01-22T16:23:19.715Z,1.40
2018-01-22T16:25:53.484Z,3.55
2018-01-22T16:28:27.260Z,2.75
2018-01-22T16:31:01.793Z,1.17
2018-01-22T16:33:35.482Z,0.37
2018-01-22T16:36:09.472Z,3.40
2018-01-22T16:38:43.207Z,1.60
2018-01-22T16:41:16.987Z,3.37
2018-01-22T16:43:50.719Z,0.80
2018-01-22T16:46:24.480Z,1.08
2018-01-22T16:48:58.228Z,4.78
2018-01-22T16:51:32.052Z,1.35
2018-01-22T16:54:05.763Z,2.17
2018-01-22T16:56:40.548Z,3.97
2018-01-22T16:59:14.256Z,6.90
2018-01-22T17:01:48.014Z,0.50
2018-01-22T17:04:21.744Z,5.12
2018-01-22T17:06:55.501Z,4.05
2018-01-22T17:09:29.324Z,5.22
2018-01-22T17:12:03.137Z,9.57
2018-01-22T17:14:37.888Z,2.37
2018-01-22T17:17:11.495Z,4.22
2018-01-22T17:19:46.013Z,5.35
2018-01-22T17:22:19.571Z,4.53
2018-01-22T17:24:53.464Z,2.08
2018-01-22T17:27:28.116Z,0.60
2018-01-22T17:30:01.938Z,1.48
2018-01-22T17:32:35.702Z,0.60
2018-01-22T17:35:10.771Z,0.30
2018-01-22T17:37:44.946Z,2.47
2018-01-22T17:40:19.099Z,5.57
2018-01-22T17:42:52.693Z,3.53
2018-01-22T17:45:27.404Z,3.90
2018-01-22T17:48:01.161Z,2.00
2018-01-22T17:50:36.195Z,0.45
2018-01-22T17:53:09.796Z,2.75
2018-01-22T17:55:43.611Z,2.08
2018-01-22T17:58:18.166Z,0.60
2018-01-22T18:00:51.971Z,2.78
2018-01-22T18:03:26.028Z,0.40
2018-01-22T18:05:59.731Z,1.30
2018-01-22T18:08:33.500Z,1.48
2018-01-22T18:11:07.084Z,3.50
2018-01-22T18:13:40.847Z,2.35
2018-01-22T18:16:15.460Z,2.12
2018-01-22T18:18:49.727Z,0.40
2018-01-22T18:21:23.558Z,0.40
2018-01-22T18:23:57.892Z,0.30
2018-01-22T18:26:33.284Z,0.40
2018-01-22T18:29:07.172Z,2.55
2018-01-22T18:31:41.719Z,0.30
2018-01-22T18:34:15.375Z,2.17
2018-01-22T18:36:50.453Z,0.50
2018-01-22T18:39:25.992Z,1.00
2018-01-22T18:42:00.715Z,3.10
2018-01-22T18:44:34.525Z,0.62
2018-01-22T18:47:08.120Z,3.58
2018-01-22T18:49:42.046Z,2.15
2018-01-22T18:52:15.820Z,4.62
2018-01-22T18:54:49.537Z,2.40
2018-01-22T18:57:24.795Z,2.15
2018-01-22T18:59:58.543Z,3.05
2018-01-22T19:02:32.234Z,2.75
2018-01-22T19:05:06.016Z,7.60
2018-01-22T19:07:39.884Z,1.25
2018-01-22T19:10:14.557Z,4.15
2018-01-22T19:12:48.704Z,1.65
2018-01-22T19:15:22.300Z,5.28
2018-01-22T19:17:59.340Z,1.48
2018-01-22T19:23:13.066Z,0.88
2018-01-22T19:25:47.617Z,2.72
2018-01-22T19:28:23.275Z,6.85
2018-01-22T19:30:58.547Z,1.50
2018-01-22T19:33:34.100Z,3.28
2018-01-22T19:38:51.406Z,1.98
2018-01-22T19:41:25.259Z,1.20
2018-01-22T19:43:59.447Z,3.92
2018-01-22T19:46:33.934Z,10.73
2018-01-22T19:49:07.704Z,5.75
2018-01-22T19:51:41.489Z,3.78
2018-01-22T19:54:15.526Z,0.30
2018-01-22T19:56:50.209Z,0.30
2018-01-22T19:59:24.600Z,6.12
2018-01-22T20:01:58.519Z,4.60
2018-01-22T20:04:33.135Z,3.05
2018-01-22T20:07:07.696Z,0.30
2018-01-22T20:09:42.718Z,4.30
2018-01-22T20:12:17.248Z,2.50
2018-01-22T20:14:52.585Z,6.25
2018-01-22T20:17:28.200Z,9.40
2018-01-22T20:20:03.498Z,1.37
2018-01-22T20:22:37.166Z,0.45
2018-01-22T20:25:10.869Z,5.45
2018-01-22T20:27:44.507Z,4.22
2018-01-22T20:30:19.213Z,6.50
2018-01-22T20:32:54.084Z,5.35
2018-01-22T20:35:31.253Z,4.05
2018-01-22T20:38:08.023Z,9.80
2018-01-22T20:40:46.955Z,5.40
2018-01-22T20:43:22.455Z,4.93
2018-01-22T20:46:01.078Z,5.12
2018-01-22T20:48:36.590Z,6.53
2018-01-22T20:51:10.669Z,1.05
2018-01-22T20:53:47.100Z,3.80
2018-01-22T20:59:00.352Z,1.98
2018-01-22T21:01:34.257Z,9.13
2018-01-22T21:04:08.796Z,8.32
2018-01-22T21:06:43.276Z,7.35
2018-01-22T21:09:17.519Z,2.62
2018-01-22T21:11:51.477Z,5.45
2018-01-22T21:14:25.625Z,3.53
2018-01-22T21:19:42.163Z,5.75
2018-01-22T21:22:16.039Z,5.40
2018-01-22T21:24:51.502Z,6.28
2018-01-22T21:27:26.775Z,6.30
2018-01-22T21:30:04.684Z,4.50
2018-01-22T21:32:48.368Z,7.55
2018-01-22T21:35:28.384Z,7.10
2018-01-22T21:43:33.880Z,6.37
2018-01-22T21:46:08.174Z,3.42
2018-01-22T21:48:42.808Z,7.35
2018-01-22T21:56:45.588Z,5.35
2018-01-22T21:59:21.837Z,8.85
2018-01-22T22:02:05.897Z,5.07
2018-01-22T22:04:40.952Z,9.70
2018-01-22T22:13:18.658Z,4.93
2018-01-22T22:16:09.603Z,4.82
2018-01-22T22:18:45.244Z,4.53
2018-01-22T22:26:45.440Z,2.28
2018-01-22T22:29:29.897Z,0.62
2018-01-22T22:32:06.446Z,3.20
2018-01-22T22:34:47.968Z,4.45
2018-01-22T22:37:24.421Z,1.83
2018-01-22T22:40:07.038Z,9.02
2018-01-22T22:45:22.761Z,2.70
2018-01-22T22:48:27.089Z,6.22
2018-01-22T22:51:01.477Z,6.10
2018-01-22T22:53:40.158Z,4.90
2018-01-22T22:58:53.834Z,8.95
2018-01-22T23:01:27.832Z,6.32
2018-01-22T23:04:04.952Z,8.57
2018-01-22T23:09:23.017Z,7.07
2018-01-22T23:11:59.929Z,13.65
2018-01-22T23:14:34.013Z,5.43
2018-01-22T23:19:54.812Z,6.82
2018-01-22T23:22:32.583Z,5.78
2018-01-22T23:25:08.192Z,5.97
2018-01-22T23:27:48.347Z,11.73
2018-01-22T23:30:29.340Z,11.40
2018-01-22T23:33:11.006Z,8.10
2018-01-22T23:35:49.469Z,6.40
2018-01-22T23:38:23.957Z,3.90
2018-01-22T23:41:03.885Z,5.00
2018-01-22T23:43:39.190Z,8.85
2018-01-22T23:49:05.117Z,6.82
2018-01-22T23:54:33.272Z,3.53
2018-01-22T23:57:15.245Z,3.25
2018-01-22T23:59:54.408Z,4.68
